createdAt,value
2019-03-03T00:01:34.218Z,101005.27
2019-03-03T00:04:03.713Z,101007.05
2019-03-03T00:06:33.110Z,101007.06
2019-03-03T00:09:02.439Z,101007.94
2019-03-03T00:11:33.384Z,101003.62
2019-03-03T00:14:02.780Z,101005.81
2019-03-03T00:16:32.103Z,101001.44
2019-03-03T00:19:01.435Z,101003.63
2019-03-03T00:21:31.124Z,101002.74
2019-03-03T00:24:00.443Z,101004.55
2019-03-03T00:26:29.768Z,101000.23
2019-03-03T00:28:59.166Z,100994.53
2019-03-03T00:31:36.504Z,100985.03
2019-03-03T00:34:06.076Z,100989.34
2019-03-03T00:36:55.147Z,100985.42
2019-03-03T00:39:42.579Z,100985.42
2019-03-03T00:42:29.664Z,100985.91
2019-03-03T00:45:06.623Z,100982.86
2019-03-03T00:47:37.836Z,100988.97
2019-03-03T00:50:09.208Z,100981.98
2019-03-03T00:52:54.700Z,100974.15
2019-03-03T00:55:34.316Z,100977.68
2019-03-03T00:58:10.708Z,100977.69
2019-03-03T01:00:48.549Z,100965.96
2019-03-03T01:03:19.523Z,100978.12
2019-03-03T01:05:53.586Z,100963.83
2019-03-03T01:08:39.663Z,100968.63
2019-03-03T01:11:10.666Z,100961.65
2019-03-03T01:13:44.264Z,100955.11
2019-03-03T01:16:17.746Z,100946.33
2019-03-03T01:18:48.706Z,100954.18
2019-03-03T01:21:22.591Z,100952.84
2019-03-03T01:23:56.215Z,100943.28
2019-03-03T01:26:25.769Z,100945.47
2019-03-03T01:28:55.093Z,100951.62
2019-03-03T01:31:24.648Z,100947.69
2019-03-03T01:33:53.975Z,100938.53
2019-03-03T01:36:23.535Z,100933.30
2019-03-03T01:38:52.859Z,100931.56
2019-03-03T01:41:22.180Z,100928.12
2019-03-03T01:43:51.637Z,100917.22
2019-03-03T01:46:20.961Z,100925.94
2019-03-03T01:48:50.288Z,100923.31
2019-03-03T01:51:19.623Z,100929.91
2019-03-03T01:53:48.945Z,100915.08
2019-03-03T01:56:18.275Z,100915.99
2019-03-03T01:58:47.597Z,100899.38
2019-03-03T02:01:17.893Z,100901.13
2019-03-03T02:03:47.289Z,100901.64
2019-03-03T02:06:16.612Z,100888.09
2019-03-03T02:08:46.215Z,100879.80
2019-03-03T02:11:15.535Z,100873.25
2019-03-03T02:13:44.861Z,100865.00
2019-03-03T02:16:14.240Z,100865.84
2019-03-03T02:18:43.518Z,100858.46
2019-03-03T02:21:12.849Z,100850.61
2019-03-03T02:23:42.189Z,100847.56
2019-03-03T02:26:11.523Z,100857.55
2019-03-03T02:28:40.852Z,100860.61
2019-03-03T02:31:10.177Z,100854.50
2019-03-03T02:33:39.506Z,100844.47
2019-03-03T02:36:08.901Z,100833.96
2019-03-03T02:38:38.223Z,100848.39
2019-03-03T02:41:07.625Z,100844.47
2019-03-03T02:43:41.317Z,100838.33
2019-03-03T02:46:09.908Z,100832.25
2019-03-03T02:48:39.098Z,100839.63
2019-03-03T02:51:08.449Z,100837.45
2019-03-03T02:53:37.781Z,100831.73
2019-03-03T02:56:07.107Z,100830.91
2019-03-03T02:58:36.433Z,100830.47
2019-03-03T03:01:07.407Z,100837.02
2019-03-03T03:03:36.729Z,100832.61
2019-03-03T03:06:23.557Z,100827.38
2019-03-03T03:09:09.578Z,100827.37
2019-03-03T03:11:42.414Z,100816.04
2019-03-03T03:14:13.451Z,100819.09
2019-03-03T03:16:50.372Z,100815.60
2019-03-03T03:19:21.337Z,100815.17
2019-03-03T03:21:52.337Z,100808.59
2019-03-03T03:24:26.005Z,100815.61
2019-03-03T03:27:07.272Z,100811.72
2019-03-03T03:29:38.364Z,100812.16
2019-03-03T03:32:24.663Z,100793.36
2019-03-03T03:35:08.824Z,100803.83
2019-03-03T03:37:39.804Z,100798.16
2019-03-03T03:40:21.074Z,100805.17
2019-03-03T03:43:10.337Z,100798.59
2019-03-03T03:45:56.372Z,100791.62
2019-03-03T03:48:45.388Z,100787.70
2019-03-03T03:51:21.927Z,100792.05
2019-03-03T03:53:59.044Z,100782.42
2019-03-03T03:56:39.950Z,100783.73
2019-03-03T03:59:20.183Z,100780.72
2019-03-03T04:02:07.313Z,100788.56
2019-03-03T04:04:40.794Z,100775.92
2019-03-03T04:07:12.010Z,100778.53
2019-03-03T04:09:45.686Z,100788.09
2019-03-03T04:12:19.362Z,100791.15
2019-03-03T04:14:53.142Z,100765.38
2019-03-03T04:17:29.555Z,100780.60
2019-03-03T04:20:06.581Z,100767.92
2019-03-03T04:22:53.579Z,100760.55
2019-03-03T04:25:24.550Z,100766.14
2019-03-03T04:27:55.519Z,100760.47
2019-03-03T04:30:38.466Z,100750.84
2019-03-03T04:33:12.113Z,100755.63
2019-03-03T04:35:43.077Z,100756.43
2019-03-03T04:38:16.880Z,100749.89
2019-03-03T04:40:51.483Z,100756.34
2019-03-03T04:43:25.361Z,100751.55
2019-03-03T04:45:56.330Z,100752.34
2019-03-03T04:48:34.257Z,100745.33
2019-03-03T04:51:07.617Z,100737.44
2019-03-03T04:53:38.584Z,100733.08
2019-03-03T04:56:18.463Z,100734.30
2019-03-03T04:58:55.596Z,100729.03
2019-03-03T05:01:45.141Z,100719.01
2019-03-03T05:04:32.366Z,100720.27
2019-03-03T05:07:09.026Z,100713.73
2019-03-03T05:09:49.462Z,100713.20
2019-03-03T05:12:29.192Z,100710.59
2019-03-03T05:15:00.400Z,100730.62
2019-03-03T05:17:40.580Z,100710.64
2019-03-03T05:20:11.549Z,100715.86
2019-03-03T05:22:40.880Z,100706.73
2019-03-03T05:25:10.203Z,100700.20
2019-03-03T05:27:39.870Z,100709.77
2019-03-03T05:30:13.848Z,100711.95
2019-03-03T05:32:43.183Z,100698.01
2019-03-03T05:35:12.742Z,100693.70
2019-03-03T05:37:42.079Z,100698.06
2019-03-03T05:40:11.545Z,100698.49
2019-03-03T05:42:40.921Z,100693.30
2019-03-03T05:45:10.511Z,100692.88
2019-03-03T05:47:39.844Z,100690.30
2019-03-03T05:50:09.175Z,100679.88
2019-03-03T05:52:38.809Z,100688.16
2019-03-03T05:55:09.704Z,100686.90
2019-03-03T05:57:39.051Z,100686.46
2019-03-03T06:00:11.288Z,100683.84
2019-03-03T06:02:40.634Z,100691.73
2019-03-03T06:05:10.234Z,100692.59
2019-03-03T06:07:39.563Z,100674.73
2019-03-03T06:10:09.728Z,100676.00
2019-03-03T06:12:39.056Z,100682.14
2019-03-03T06:15:14.116Z,100676.48
2019-03-03T06:17:43.440Z,100689.55
2019-03-03T06:20:12.943Z,100678.66
2019-03-03T06:22:42.265Z,100683.49
2019-03-03T06:25:12.740Z,100682.18
2019-03-03T06:27:42.061Z,100673.47
2019-03-03T06:30:15.998Z,100686.58
2019-03-03T06:32:46.385Z,100682.19
2019-03-03T06:35:15.717Z,100676.95
2019-03-03T06:37:45.051Z,100675.25
2019-03-03T06:40:16.134Z,100687.89
2019-03-03T06:42:45.692Z,100676.12
2019-03-03T06:45:15.426Z,100684.40
2019-03-03T06:47:44.754Z,100677.43
2019-03-03T06:50:14.088Z,100687.48
2019-03-03T06:52:43.413Z,100667.87
2019-03-03T06:55:12.810Z,100673.98
2019-03-03T06:57:42.140Z,100682.73
2019-03-03T07:00:14.203Z,100676.67
2019-03-03T07:02:43.770Z,100691.95
2019-03-03T07:05:13.162Z,100699.37
2019-03-03T07:07:42.732Z,100693.27
2019-03-03T07:10:13.491Z,100682.88
2019-03-03T07:12:42.825Z,100699.00
2019-03-03T07:15:16.675Z,100689.81
2019-03-03T07:17:46.244Z,100670.23
2019-03-03T07:20:15.572Z,100687.70
2019-03-03T07:22:44.906Z,100675.89
2019-03-03T07:25:14.837Z,100680.29
2019-03-03T07:27:45.134Z,100682.94
2019-03-03T07:30:15.501Z,100678.61
2019-03-03T07:32:52.428Z,100680.76
2019-03-03T07:35:21.755Z,100692.53
2019-03-03T07:37:51.091Z,100682.53
2019-03-03T07:40:20.649Z,100686.05
2019-03-03T07:42:49.972Z,100689.98
2019-03-03T07:45:19.293Z,100677.77
2019-03-03T07:47:48.852Z,100696.99
2019-03-03T07:50:18.181Z,100679.55
2019-03-03T07:52:47.507Z,100676.50
2019-03-03T07:55:16.837Z,100676.96
2019-03-03T07:57:46.899Z,100679.55
2019-03-03T08:00:19.180Z,100674.31
2019-03-03T08:02:48.738Z,100678.64
2019-03-03T08:05:18.302Z,100673.81
2019-03-03T08:07:47.625Z,100676.44
2019-03-03T08:10:16.953Z,100679.08
2019-03-03T08:12:46.277Z,100685.66
2019-03-03T08:15:17.737Z,100678.64
2019-03-03T08:17:47.140Z,100684.72
2019-03-03T08:20:16.539Z,100684.69
2019-03-03T08:22:45.871Z,100682.10
2019-03-03T08:25:15.193Z,100691.66
2019-03-03T08:27:44.754Z,100681.20
2019-03-03T08:30:18.157Z,100688.14
2019-03-03T08:32:47.716Z,100682.00
2019-03-03T08:35:22.654Z,100684.25
2019-03-03T08:37:52.048Z,100687.77
2019-03-03T08:40:21.630Z,100683.84
2019-03-03T08:42:55.277Z,100689.08
2019-03-03T08:45:42.434Z,100675.13
2019-03-03T08:48:13.410Z,100674.72
2019-03-03T08:50:59.491Z,100683.44
2019-03-03T08:53:30.711Z,100678.64
2019-03-03T08:56:07.906Z,100668.15
2019-03-03T08:58:38.920Z,100674.28
2019-03-03T09:01:26.683Z,100676.47
2019-03-03T09:04:03.856Z,100679.08
2019-03-03T09:06:34.825Z,100691.29
2019-03-03T09:09:10.709Z,100670.83
2019-03-03T09:11:44.446Z,100686.95
2019-03-03T09:14:18.187Z,100679.11
2019-03-03T09:16:51.096Z,100673.88
2019-03-03T09:19:22.157Z,100659.11
2019-03-03T09:21:53.120Z,100663.91
2019-03-03T09:24:40.029Z,100669.11
2019-03-03T09:27:10.998Z,100677.83
2019-03-03T09:29:53.700Z,100673.47
2019-03-03T09:32:40.775Z,100663.87
2019-03-03T09:35:27.910Z,100661.73
2019-03-03T09:38:17.113Z,100662.20
2019-03-03T09:40:57.104Z,100676.59
2019-03-03T09:43:34.058Z,100656.55
2019-03-03T09:46:08.072Z,100665.71
2019-03-03T09:48:41.820Z,100653.50
2019-03-03T09:51:28.331Z,100670.97
2019-03-03T09:53:59.168Z,100649.16
2019-03-03T09:56:46.112Z,100663.12
2019-03-03T09:59:19.741Z,100655.27
2019-03-03T10:01:50.704Z,100659.19
2019-03-03T10:04:21.906Z,100657.02
2019-03-03T10:07:09.267Z,100657.45
2019-03-03T10:09:49.285Z,100677.51
2019-03-03T10:12:23.073Z,100659.65
2019-03-03T10:14:53.298Z,100656.16
2019-03-03T10:17:38.725Z,100670.97
2019-03-03T10:20:14.387Z,100657.91
2019-03-03T10:22:57.257Z,100659.65
2019-03-03T10:25:34.144Z,100667.97
2019-03-03T10:28:13.522Z,100663.58
2019-03-03T10:30:44.505Z,100660.98
2019-03-03T10:33:15.690Z,100647.46
2019-03-03T10:35:49.718Z,100657.52
2019-03-03T10:38:35.746Z,100662.73
2019-03-03T10:41:04.462Z,100657.96
2019-03-03T10:43:35.426Z,100658.40
2019-03-03T10:46:22.634Z,100651.84
2019-03-03T10:48:53.591Z,100664.55
2019-03-03T10:51:32.678Z,100654.08
2019-03-03T10:54:09.803Z,100664.11
2019-03-03T10:56:44.392Z,100654.98
2019-03-03T10:59:18.038Z,100654.97
2019-03-03T11:01:55.112Z,100644.09
2019-03-03T11:04:44.337Z,100644.97
2019-03-03T11:07:27.644Z,100653.71
2019-03-03T11:09:58.616Z,100641.05
2019-03-03T11:12:41.610Z,100641.94
2019-03-03T11:15:18.500Z,100645.89
2019-03-03T11:17:50.735Z,100640.70
2019-03-03T11:20:24.400Z,100649.03
2019-03-03T11:23:06.945Z,100618.05
2019-03-03T11:25:47.017Z,100618.05
2019-03-03T11:28:23.792Z,100614.59
2019-03-03T11:30:55.975Z,100631.64
2019-03-03T11:33:32.575Z,100621.17
2019-03-03T11:36:12.460Z,100617.69
2019-03-03T11:38:43.515Z,100608.12
2019-03-03T11:41:26.677Z,100603.75
2019-03-03T11:44:03.215Z,100602.87
2019-03-03T11:46:40.380Z,100613.37
2019-03-03T11:49:29.551Z,100598.08
2019-03-03T11:52:16.816Z,100616.45
2019-03-03T11:54:47.745Z,100602.89
2019-03-03T11:57:30.584Z,100598.08
2019-03-03T12:00:01.550Z,100599.41
2019-03-03T12:02:32.825Z,100594.16
2019-03-03T12:05:04.018Z,100588.05
2019-03-03T12:07:35.763Z,100582.81
2019-03-03T12:10:25.518Z,100585.87
2019-03-03T12:12:59.612Z,100581.50
2019-03-03T12:15:34.149Z,100584.98
2019-03-03T12:18:13.043Z,100573.20
2019-03-03T12:20:56.389Z,100577.98
2019-03-03T12:23:30.292Z,100564.45
2019-03-03T12:26:17.386Z,100568.40
2019-03-03T12:29:00.348Z,100575.40
2019-03-03T12:31:43.548Z,100557.48
2019-03-03T12:34:29.371Z,100566.20
2019-03-03T12:37:08.953Z,100585.02
2019-03-03T12:39:39.962Z,100564.02
2019-03-03T12:42:27.451Z,100553.54
2019-03-03T12:45:04.308Z,100557.02
2019-03-03T12:47:38.264Z,100561.84
2019-03-03T12:50:28.564Z,100553.55
2019-03-03T12:53:11.679Z,100550.02
2019-03-03T12:55:45.681Z,100550.90
2019-03-03T12:58:22.697Z,100548.30
2019-03-03T13:00:56.435Z,100544.35
2019-03-03T13:03:39.243Z,100546.55
2019-03-03T13:06:10.088Z,100538.25
2019-03-03T13:08:44.054Z,100532.55
2019-03-03T13:11:15.006Z,100529.06
2019-03-03T13:13:48.879Z,100522.51
2019-03-03T13:16:28.939Z,100526.43
2019-03-03T13:19:06.138Z,100519.45
2019-03-03T13:21:39.818Z,100515.53
2019-03-03T13:24:13.411Z,100515.08
2019-03-03T13:26:47.059Z,100512.45
2019-03-03T13:29:18.031Z,100519.44
2019-03-03T13:31:51.563Z,100502.39
2019-03-03T13:34:24.970Z,100522.06
2019-03-03T13:36:56.018Z,100513.31
2019-03-03T13:39:39.163Z,100500.20
2019-03-03T13:42:26.453Z,100496.28
2019-03-03T13:44:55.871Z,100491.03
2019-03-03T13:47:25.210Z,100494.07
2019-03-03T13:49:54.543Z,100494.07
2019-03-03T13:52:25.196Z,100478.78
2019-03-03T13:54:54.533Z,100483.58
2019-03-03T13:57:24.032Z,100485.80
2019-03-03T13:59:53.364Z,100476.63
2019-03-03T14:02:23.121Z,100471.36
2019-03-03T14:04:52.449Z,100463.52
2019-03-03T14:07:21.979Z,100457.41
2019-03-03T14:09:51.309Z,100460.03
2019-03-03T14:12:20.674Z,100451.29
2019-03-03T14:14:50.007Z,100457.40
2019-03-03T14:17:19.343Z,100455.64
2019-03-03T14:19:48.938Z,100454.33
2019-03-03T14:22:19.147Z,100449.98
2019-03-03T14:24:48.586Z,100446.06
2019-03-03T14:27:17.925Z,100439.08
2019-03-03T14:29:47.286Z,100432.96
2019-03-03T14:32:16.707Z,100444.31
2019-03-03T14:34:46.433Z,100428.16
2019-03-03T14:37:15.938Z,100428.16
2019-03-03T14:39:45.267Z,100439.08
2019-03-03T14:42:14.609Z,100420.72
2019-03-03T14:44:44.022Z,100412.88
2019-03-03T14:47:13.363Z,100409.81
2019-03-03T14:49:42.730Z,100405.88
2019-03-03T14:52:12.227Z,100418.55
2019-03-03T14:54:41.923Z,100404.56
2019-03-03T14:57:11.261Z,100405.88
2019-03-03T14:59:40.600Z,100394.08
2019-03-03T15:02:09.935Z,100392.76
2019-03-03T15:04:39.371Z,100386.65
2019-03-03T15:07:08.759Z,100387.50
2019-03-03T15:09:38.089Z,100378.34
2019-03-03T15:12:07.469Z,100383.56
2019-03-03T15:14:36.801Z,100380.50
2019-03-03T15:17:06.199Z,100364.78
2019-03-03T15:19:35.716Z,100357.78
2019-03-03T15:22:05.049Z,100370.03
2019-03-03T15:24:34.387Z,100358.67
2019-03-03T15:27:03.786Z,100359.52
2019-03-03T15:29:33.380Z,100354.72
2019-03-03T15:32:02.798Z,100354.70
2019-03-03T15:34:32.207Z,100331.56
2019-03-03T15:37:01.608Z,100321.08
2019-03-03T15:39:31.012Z,100325.41
2019-03-03T15:42:00.344Z,100324.98
2019-03-03T15:44:30.647Z,100324.08
2019-03-03T15:47:00.335Z,100324.52
2019-03-03T15:49:30.035Z,100313.16
2019-03-03T15:51:59.371Z,100321.02
2019-03-03T15:54:28.942Z,100305.72
2019-03-03T15:56:58.365Z,100308.34
2019-03-03T15:59:27.700Z,100296.52
2019-03-03T16:01:57.030Z,100297.39
2019-03-03T16:04:26.674Z,100289.52
2019-03-03T16:06:56.084Z,100281.64
2019-03-03T16:09:25.674Z,100274.66
2019-03-03T16:11:55.015Z,100266.35
2019-03-03T16:14:24.346Z,100272.45
2019-03-03T16:16:53.910Z,100267.66
2019-03-03T16:19:23.255Z,100265.90
2019-03-03T16:21:52.611Z,100259.32
2019-03-03T16:24:21.955Z,100246.22
2019-03-03T16:26:51.286Z,100244.91
2019-03-03T16:29:21.098Z,100242.29
2019-03-03T16:31:50.427Z,100242.69
2019-03-03T16:34:20.744Z,100239.63
2019-03-03T16:36:50.079Z,100228.25
2019-03-03T16:39:19.418Z,100224.76
2019-03-03T16:41:49.053Z,100236.13
2019-03-03T16:44:18.395Z,100221.25
2019-03-03T16:46:50.744Z,100215.56
2019-03-03T16:49:20.083Z,100214.26
2019-03-03T16:51:49.414Z,100219.03
2019-03-03T16:54:18.865Z,100208.11
2019-03-03T16:56:48.232Z,100205.02
2019-03-03T16:59:17.575Z,100206.78
2019-03-03T17:01:46.903Z,100215.09
2019-03-03T17:04:16.268Z,100203.70
2019-03-03T17:06:45.578Z,100215.09
2019-03-03T17:09:15.199Z,100209.83
2019-03-03T17:11:44.536Z,100194.98
2019-03-03T17:14:13.880Z,100194.95
2019-03-03T17:16:43.299Z,100181.85
2019-03-03T17:19:12.638Z,100180.09
2019-03-03T17:21:41.983Z,100179.66
2019-03-03T17:24:11.550Z,100177.02
2019-03-03T17:26:40.881Z,100177.89
2019-03-03T17:29:10.214Z,100166.95
2019-03-03T17:31:39.547Z,100171.28
2019-03-03T17:34:13.115Z,100166.47
2019-03-03T17:36:40.230Z,100173.03
2019-03-03T17:39:09.729Z,100172.61
2019-03-03T17:41:39.062Z,100177.86
2019-03-03T17:44:08.390Z,100166.91
2019-03-03T17:46:37.778Z,100163.38
2019-03-03T17:49:07.167Z,100160.77
2019-03-03T17:51:36.542Z,100172.59
2019-03-03T17:54:06.164Z,100164.66
2019-03-03T17:56:35.502Z,100154.62
2019-03-03T17:59:05.487Z,100153.28
2019-03-03T18:01:34.951Z,100153.70
2019-03-03T18:04:04.638Z,100133.17
2019-03-03T18:06:38.781Z,100158.08
2019-03-03T18:09:07.879Z,100134.87
2019-03-03T18:11:38.838Z,100135.34
2019-03-03T18:14:08.168Z,100137.51
2019-03-03T18:16:37.502Z,100136.65
2019-03-03T18:19:06.923Z,100126.99
2019-03-03T18:21:36.260Z,100129.64
2019-03-03T18:24:05.586Z,100123.95
2019-03-03T18:26:35.265Z,100113.88
2019-03-03T18:29:04.595Z,100128.33
2019-03-03T18:31:34.177Z,100121.74
2019-03-03T18:34:03.488Z,100100.33
2019-03-03T18:36:32.819Z,100087.61
2019-03-03T18:39:02.179Z,100094.16
2019-03-03T18:41:33.137Z,100095.88
2019-03-03T18:44:02.634Z,100074.43
2019-03-03T18:46:31.973Z,100081.44
2019-03-03T18:49:01.354Z,100067.03
2019-03-03T18:51:30.770Z,100071.42
2019-03-03T18:54:00.103Z,100071.41
2019-03-03T18:56:29.443Z,100066.59
2019-03-03T18:58:58.867Z,100061.81
2019-03-03T19:01:28.565Z,100057.41
2019-03-03T19:03:57.994Z,100045.14
2019-03-03T19:06:27.317Z,100035.45
2019-03-03T19:08:57.814Z,100039.34
2019-03-03T19:11:27.273Z,100025.77
2019-03-03T19:13:56.610Z,100022.25
2019-03-03T19:16:26.243Z,100013.95
2019-03-03T19:18:55.561Z,100017.00
2019-03-03T19:21:24.905Z,100015.69
2019-03-03T19:23:54.281Z,100007.81
2019-03-03T19:26:23.578Z,100007.39
2019-03-03T19:28:53.153Z,100010.44
2019-03-03T19:31:22.505Z,100011.27
2019-03-03T19:33:53.977Z,100009.54
2019-03-03T19:36:23.306Z,99996.41
2019-03-03T19:38:52.860Z,99995.55
2019-03-03T19:41:22.277Z,100003.43
2019-03-03T19:43:51.835Z,100006.47
2019-03-03T19:46:22.132Z,99998.56
2019-03-03T19:48:51.463Z,100000.73
2019-03-03T19:51:20.868Z,100002.92
2019-03-03T19:53:50.193Z,99988.48
2019-03-03T19:56:19.760Z,99981.86
2019-03-03T19:58:49.093Z,99976.19
2019-03-03T20:01:18.755Z,99981.86
2019-03-03T20:03:48.296Z,99979.65
2019-03-03T20:06:17.630Z,99971.32
2019-03-03T20:08:46.945Z,99973.95
2019-03-03T20:11:16.508Z,99965.23
2019-03-03T20:13:46.086Z,99963.48
2019-03-03T20:16:15.405Z,99950.34
2019-03-03T20:18:44.799Z,99941.13
2019-03-03T20:21:15.092Z,99952.05
2019-03-03T20:23:44.542Z,99956.40
2019-03-03T20:26:13.928Z,99934.53
2019-03-03T20:28:43.386Z,99945.92
2019-03-03T20:31:13.688Z,99952.05
2019-03-03T20:33:43.311Z,99938.88
2019-03-03T20:36:12.864Z,99919.19
2019-03-03T20:38:42.200Z,99922.27
2019-03-03T20:41:11.519Z,99905.67
2019-03-03T20:43:41.676Z,99911.34
2019-03-03T20:46:11.229Z,99911.34
2019-03-03T20:48:40.892Z,99908.72
2019-03-03T20:51:10.216Z,99910.48
2019-03-03T20:53:39.546Z,99908.23
2019-03-03T20:56:08.881Z,99900.32
2019-03-03T20:58:38.242Z,99907.27
2019-03-03T21:01:07.667Z,99908.99
2019-03-03T21:03:37.043Z,99918.59
2019-03-03T21:06:06.364Z,99908.05
2019-03-03T21:08:35.683Z,99912.70
2019-03-03T21:11:05.033Z,99911.88
2019-03-03T21:13:34.349Z,99907.01
2019-03-03T21:16:04.654Z,99905.70
2019-03-03T21:18:34.003Z,99888.20
2019-03-03T21:21:03.341Z,99864.11
2019-03-03T21:23:32.657Z,99867.56
2019-03-03T21:26:01.992Z,99877.13
2019-03-03T21:28:31.312Z,99873.19
2019-03-03T21:31:00.654Z,99871.87
2019-03-03T21:33:29.979Z,99866.62
2019-03-03T21:36:00.271Z,99863.58
2019-03-03T21:38:29.590Z,99852.13
2019-03-03T21:40:58.946Z,99863.01
2019-03-03T21:43:28.243Z,99856.03
2019-03-03T21:45:57.569Z,99857.30
2019-03-03T21:48:27.215Z,99835.83
2019-03-03T21:50:56.640Z,99820.52
2019-03-03T21:53:26.559Z,99828.77
2019-03-03T21:55:55.914Z,99812.18
2019-03-03T21:58:25.676Z,99816.53
2019-03-03T22:00:55.079Z,99803.35
2019-03-03T22:03:24.574Z,99782.33
2019-03-03T22:05:53.893Z,99794.16
2019-03-03T22:08:23.517Z,99786.64
2019-03-03T22:10:52.843Z,99758.19
2019-03-03T22:13:22.166Z,99762.13
2019-03-03T22:15:51.479Z,99748.03
2019-03-03T22:18:20.805Z,99749.86
2019-03-03T22:20:50.364Z,99753.39
2019-03-03T22:23:19.687Z,99737.22
2019-03-03T22:25:49.003Z,99710.53
2019-03-03T22:28:18.564Z,99721.45
2019-03-03T22:30:47.886Z,99696.44
2019-03-03T22:33:18.181Z,99688.46
2019-03-03T22:35:47.496Z,99679.00
2019-03-03T22:38:17.057Z,99683.85
2019-03-03T22:40:46.385Z,99662.33
2019-03-03T22:43:15.764Z,99653.23
2019-03-03T22:45:45.083Z,99646.67
2019-03-03T22:48:14.485Z,99619.58
2019-03-03T22:50:44.195Z,99631.86
2019-03-03T22:53:13.594Z,99623.52
2019-03-03T22:55:43.488Z,99612.16
2019-03-03T22:58:13.043Z,99621.30
2019-03-03T23:01:06.799Z,99614.73
2019-03-03T23:03:45.253Z,99632.27
2019-03-03T23:06:32.752Z,99630.91
2019-03-03T23:09:10.800Z,99632.72
2019-03-03T23:12:03.209Z,99642.36
2019-03-03T23:14:44.585Z,99637.97
2019-03-03T23:17:32.152Z,99636.67
2019-03-03T23:20:09.673Z,99640.59
2019-03-03T23:22:50.710Z,99649.80
2019-03-03T23:25:31.586Z,99645.86
2019-03-03T23:28:00.909Z,99646.76
2019-03-03T23:30:30.237Z,99641.50
2019-03-03T23:32:59.555Z,99641.00
2019-03-03T23:35:28.888Z,99643.58
2019-03-03T23:37:58.440Z,99652.73
2019-03-03T23:40:27.760Z,99628.56
2019-03-03T23:42:57.652Z,99622.77
2019-03-03T23:45:26.976Z,99621.85
2019-03-03T23:47:56.371Z,99629.34
2019-03-03T23:50:25.719Z,99628.48
2019-03-03T23:52:55.080Z,99626.76
2019-03-03T23:55:24.420Z,99622.36
2019-03-03T23:57:53.933Z,99600.93
